Time;durP1;ratioP1;P1;durP2;ratioP2;P2;SDS_P1;SDS_P2;PMS_P1;PMS_P2;Temp;Humidity;BMP_temperature;BMP_pressure;BME280_temperature;BME280_humidity;BME280_pressure;Samples;Min_cycle;Max_cycle;Signal;HPM_P1;HPM_P2
2023/10/01 00:02:19;;;;;;;12.23;6.70;;;10.10;1.00;;;;;;5020553;28;20480;-80
2023/10/01 00:04:57;;;;;;;10.97;5.83;;;10.00;1.00;;;;;;5010122;28;20511;-80
2023/10/01 00:07:27;;;;;;;10.60;5.97;;;10.10;1.00;;;;;;5027225;28;20431;-80
2023/10/01 00:09:55;;;;;;;11.03;7.00;;;10.00;1.00;;;;;;5010553;28;20877;-80
2023/10/01 00:12:25;;;;;;;14.23;6.63;;;10.00;1.00;;;;;;5005005;28;20472;-81
2023/10/01 00:14:55;;;;;;;25.27;7.77;;;10.00;1.00;;;;;;5022832;28;20422;-81
2023/10/01 00:17:25;;;;;;;11.57;5.80;;;10.00;1.00;;;;;;5013741;28;20795;-80
2023/10/01 00:19:55;;;;;;;11.50;5.90;;;10.00;1.00;;;;;;5014652;28;20761;-81
2023/10/01 00:22:25;;;;;;;12.57;6.60;;;10.00;1.00;;;;;;5042112;28;20498;-81
2023/10/01 00:24:56;;;;;;;12.70;6.10;;;10.00;1.00;;;;;;5014986;28;20466;-82
2023/10/01 00:27:23;;;;;;;13.23;6.73;;;10.00;1.00;;;;;;5014335;28;20435;-81
2023/10/01 00:30:13;;;;;;;12.87;6.47;;;10.00;1.00;;;;;;5014053;28;20850;-80
2023/10/01 00:32:40;;;;;;;14.37;7.93;;;9.90;1.00;;;;;;5023162;28;20463;-81
2023/10/01 00:35:07;;;;;;;11.70;5.43;;;9.90;1.00;;;;;;5016272;28;20411;-81
2023/10/01 00:37:34;;;;;;;15.57;6.40;;;9.90;1.00;;;;;;5023440;28;20404;-80
2023/10/01 00:40:05;;;;;;;14.70;6.00;;;9.90;1.00;;;;;;5013813;28;20425;-81
2023/10/01 00:42:49;;;;;;;9.97;6.00;;;9.90;1.00;;;;;;5017846;28;20454;-81
2023/10/01 00:45:49;;;;;;;18.00;6.80;;;9.80;1.00;;;;;;5013575;28;20459;-81
2023/10/01 00:51:43;;;;;;;10.80;7.03;;;9.80;1.00;;;;;;5020102;28;20409;-81
2023/10/01 00:54:50;;;;;;;28.77;7.80;;;9.80;1.00;;;;;;5030351;28;20414;-80
2023/10/01 00:57:38;;;;;;;11.90;6.07;;;9.80;1.00;;;;;;5017800;28;20438;-81
2023/10/01 01:00:19;;;;;;;15.03;6.90;;;9.70;1.00;;;;;;5013379;28;20454;-81
2023/10/01 01:02:57;;;;;;;14.27;6.67;;;9.70;1.00;;;;;;5015764;28;20436;-81
2023/10/01 01:08:52;;;;;;;12.30;6.20;;;9.70;1.00;;;;;;5021954;28;20425;-81
2023/10/01 01:11:46;;;;;;;19.07;7.43;;;9.60;1.00;;;;;;5023406;28;20428;-81
2023/10/01 01:15:12;;;;;;;13.10;5.67;;;9.50;1.00;;;;;;5022550;28;20516;-81
2023/10/01 01:18:20;;;;;;;10.70;6.10;;;9.50;1.00;;;;;;4996217;28;20515;-81
2023/10/01 01:20:58;;;;;;;13.73;5.47;;;9.50;1.00;;;;;;5018882;28;20484;-81
2023/10/01 01:24:20;;;;;;;11.93;6.67;;;9.50;1.00;;;;;;5029682;28;20994;-81
2023/10/01 01:27:19;;;;;;;15.27;6.70;;;9.40;1.00;;;;;;5022840;28;20508;-80
2023/10/01 01:29:57;;;;;;;17.33;6.70;;;9.30;1.00;;;;;;4998758;28;20444;-81
2023/10/01 01:32:57;;;;;;;23.07;6.63;;;9.40;1.00;;;;;;5010900;28;20446;-79
2023/10/01 01:36:13;;;;;;;17.70;6.83;;;9.30;1.00;;;;;;5026486;28;20499;-77
2023/10/01 01:39:10;;;;;;;9.63;6.10;;;9.30;1.00;;;;;;5018914;28;20962;-77
2023/10/01 01:41:47;;;;;;;13.90;6.30;;;9.30;1.00;;;;;;5016951;28;20441;-77
2023/10/01 01:44:25;;;;;;;14.10;5.50;;;9.30;1.00;;;;;;5008753;28;20934;-76
2023/10/01 01:47:19;;;;;;;14.00;5.80;;;9.20;1.00;;;;;;5020376;28;20968;-77
2023/10/01 01:49:49;;;;;;;12.47;5.30;;;9.20;1.00;;;;;;5030640;28;20511;-77
2023/10/01 01:52:21;;;;;;;16.23;6.73;;;9.30;1.00;;;;;;5017594;28;20431;-76
2023/10/01 01:54:46;;;;;;;17.93;6.50;;;9.20;1.00;;;;;;5022466;28;20419;-77
2023/10/01 01:57:14;;;;;;;13.00;6.50;;;9.30;1.00;;;;;;5010306;28;20929;-77
2023/10/01 01:59:56;;;;;;;14.63;6.50;;;9.20;1.00;;;;;;5016414;28;20204;-77
2023/10/01 02:02:32;;;;;;;10.27;5.93;;;9.30;1.00;;;;;;5021644;28;20850;-76
2023/10/01 02:05:20;;;;;;;13.30;6.80;;;9.20;1.00;;;;;;5007544;28;20482;-77
2023/10/01 02:08:34;;;;;;;11.63;5.87;;;9.20;1.00;;;;;;5029911;28;20423;-77
2023/10/01 02:15:08;;;;;;;18.50;7.50;;;9.10;1.00;;;;;;5019037;28;20828;-77
2023/10/01 02:17:50;;;;;;;12.80;6.57;;;9.10;1.00;;;;;;5022813;28;20412;-77
2023/10/01 02:28:06;;;;;;;10.17;5.90;;;9.00;1.00;;;;;;5025774;28;21016;-81
2023/10/01 02:34:02;;;;;;;11.57;6.90;;;9.00;1.00;;;;;;5009372;28;20387;-81
2023/10/01 02:36:49;;;;;;;19.80;6.60;;;8.90;1.00;;;;;;5018418;28;20433;-81
2023/10/01 02:39:21;;;;;;;11.50;6.47;;;8.90;1.00;;;;;;5027772;28;20415;-81
2023/10/01 02:44:53;;;;;;;9.40;5.80;;;8.90;1.00;;;;;;5008241;28;20551;-80
2023/10/01 02:48:12;;;;;;;14.50;6.67;;;8.80;1.00;;;;;;5016314;28;20435;-81
2023/10/01 02:50:29;;;;;;;14.67;6.40;;;8.80;1.00;;;;;;5004707;28;20435;-77
2023/10/01 02:53:14;;;;;;;10.47;6.50;;;8.80;1.00;;;;;;5019094;28;20517;-77
2023/10/01 02:56:16;;;;;;;32.03;8.70;;;8.70;1.00;;;;;;5030513;28;21129;-77
2023/10/01 02:58:49;;;;;;;13.70;4.80;;;8.70;1.00;;;;;;5025647;28;20462;-77
2023/10/01 03:01:45;;;;;;;11.10;5.90;;;8.80;1.00;;;;;;5030594;28;20454;-77
2023/10/01 03:04:19;;;;;;;9.87;5.90;;;8.70;1.00;;;;;;5015690;28;20931;-77
2023/10/01 03:06:55;;;;;;;10.90;5.43;;;8.70;1.00;;;;;;5011760;28;20455;-78
2023/10/01 03:09:22;;;;;;;12.33;6.17;;;8.70;1.00;;;;;;5019080;28;20510;-77
2023/10/01 03:12:23;;;;;;;15.13;5.70;;;8.80;1.00;;;;;;5024350;28;20435;-76
2023/10/01 03:18:34;;;;;;;11.67;6.03;;;8.60;1.00;;;;;;4996027;28;20431;-76
2023/10/01 03:22:12;;;;;;;11.80;6.50;;;8.60;1.00;;;;;;5009287;28;20420;-77
2023/10/01 03:27:39;;;;;;;12.20;6.47;;;8.60;1.00;;;;;;5008749;28;20924;-77
2023/10/01 03:30:31;;;;;;;8.40;5.67;;;8.50;1.00;;;;;;5015072;28;20455;-76
2023/10/01 03:33:25;;;;;;;12.23;6.17;;;8.50;1.00;;;;;;5028879;28;20411;-76
2023/10/01 03:36:10;;;;;;;11.17;6.37;;;8.50;1.00;;;;;;4996196;28;20493;-77
2023/10/01 03:38:44;;;;;;;9.70;5.30;;;8.60;1.00;;;;;;5020767;28;20435;-76
2023/10/01 03:41:23;;;;;;;12.57;5.30;;;8.60;1.00;;;;;;5020489;28;20907;-76
2023/10/01 03:47:11;;;;;;;17.47;5.97;;;8.50;1.00;;;;;;5013520;28;20502;-77
2023/10/01 03:49:54;;;;;;;12.47;5.40;;;8.50;1.00;;;;;;5014734;28;20435;-81
2023/10/01 03:52:28;;;;;;;11.57;5.50;;;8.60;1.00;;;;;;5018999;28;20436;-81
2023/10/01 03:55:26;;;;;;;8.47;5.17;;;8.50;1.00;;;;;;5000717;28;20520;-81
2023/10/01 04:03:52;;;;;;;17.80;6.50;;;8.40;1.00;;;;;;5018253;28;20499;-79
2023/10/01 04:06:22;;;;;;;14.20;6.37;;;8.40;1.00;;;;;;5013249;28;20954;-81
2023/10/01 04:08:58;;;;;;;12.53;6.00;;;8.40;1.00;;;;;;5030074;28;20184;-91
2023/10/01 04:15:09;;;;;;;15.10;5.63;;;8.30;1.00;;;;;;5014310;28;20617;-92
2023/10/01 04:18:08;;;;;;;10.10;5.80;;;8.40;1.00;;;;;;5012470;28;20468;-91
2023/10/01 04:20:37;;;;;;;11.17;5.80;;;9.20;1.00;;;;;;5016031;28;20428;-87
2023/10/01 04:23:54;;;;;;;8.00;5.17;;;10.30;1.00;;;;;;4997254;28;20494;-87
2023/10/01 04:30:08;;;;;;;13.33;6.20;;;8.30;1.00;;;;;;4995046;28;20451;-86
2023/10/01 04:33:23;;;;;;;10.70;5.70;;;8.20;1.00;;;;;;5006506;28;20424;-86
2023/10/01 04:36:20;;;;;;;9.27;5.83;;;8.20;1.00;;;;;;5014179;28;20483;-92
2023/10/01 04:38:59;;;;;;;14.27;6.50;;;8.30;1.00;;;;;;5029292;28;20736;-92
2023/10/01 04:42:01;;;;;;;10.20;5.87;;;8.30;1.00;;;;;;5013215;28;20511;-92
2023/10/01 04:44:35;;;;;;;8.93;5.33;;;8.20;1.00;;;;;;5026846;28;22331;-92
2023/10/01 04:47:30;;;;;;;11.93;5.93;;;8.20;1.00;;;;;;5030513;28;20988;-92
2023/10/01 04:50:43;;;;;;;8.87;5.40;;;8.70;1.00;;;;;;5014884;28;20777;-92
2023/10/01 04:53:25;;;;;;;8.47;4.73;;;8.20;1.00;;;;;;5017214;28;20432;-92
2023/10/01 04:56:31;;;;;;;9.83;5.37;;;9.60;1.00;;;;;;5014168;28;20442;-92
2023/10/01 04:59:02;;;;;;;11.13;5.97;;;8.30;1.00;;;;;;5031243;28;20404;-91
2023/10/01 05:02:21;;;;;;;12.20;5.97;;;8.30;1.00;;;;;;5025656;28;20459;-91
2023/10/01 05:08:40;;;;;;;10.10;5.43;;;8.20;1.00;;;;;;5012380;28;20430;-92
2023/10/01 05:14:32;;;;;;;10.90;5.43;;;8.20;1.00;;;;;;5011862;28;20403;-92
2023/10/01 05:17:07;;;;;;;11.50;5.43;;;8.20;1.00;;;;;;5014977;28;20408;-91
2023/10/01 05:22:59;;;;;;;10.80;5.27;;;8.20;1.00;;;;;;4997927;28;20412;-91
2023/10/01 05:25:26;;;;;;;11.10;5.47;;;8.20;1.00;;;;;;4995249;28;20507;-91
2023/10/01 05:27:56;;;;;;;10.60;6.00;;;8.40;1.00;;;;;;5002153;28;20424;-92
2023/10/01 05:30:43;;;;;;;12.77;5.80;;;8.60;1.00;;;;;;5014312;28;20490;-91
2023/10/01 05:33:12;;;;;;;11.80;5.83;;;8.20;1.00;;;;;;5011326;28;20428;-92
2023/10/01 05:35:54;;;;;;;12.23;5.57;;;8.30;1.00;;;;;;5014924;28;20962;-91
2023/10/01 05:38:21;;;;;;;10.77;5.27;;;8.40;1.00;;;;;;5026258;28;20497;-91
2023/10/01 05:40:54;;;;;;;13.80;5.00;;;8.30;1.00;;;;;;5032048;28;20419;-91
2023/10/01 05:44:04;;;;;;;13.73;5.33;;;8.40;1.00;;;;;;5019613;28;20466;-91
2023/10/01 05:47:20;;;;;;;10.00;6.00;;;8.30;1.00;;;;;;5014836;28;20482;-93
2023/10/01 05:50:49;;;;;;;10.27;6.00;;;8.30;1.00;;;;;;5014472;28;20464;-93
2023/10/01 05:53:41;;;;;;;7.37;4.83;;;8.40;1.00;;;;;;5001772;28;20479;-93
2023/10/01 05:56:36;;;;;;;8.03;5.53;;;8.40;1.00;;;;;;5001714;28;20428;-92
2023/10/01 05:59:20;;;;;;;13.13;6.07;;;8.40;1.00;;;;;;5015374;28;20456;-93
2023/10/01 06:01:57;;;;;;;12.90;5.30;;;8.40;1.00;;;;;;5034717;28;20635;-93
2023/10/01 06:04:43;;;;;;;11.33;5.57;;;8.50;1.00;;;;;;5029289;28;20453;-93
2023/10/01 06:07:26;;;;;;;12.33;5.37;;;8.50;1.00;;;;;;5019677;28;20447;-89
2023/10/01 06:09:56;;;;;;;8.90;5.20;;;11.70;1.00;;;;;;5032605;28;20493;-88
2023/10/01 06:12:31;;;;;;;10.43;5.87;;;9.70;1.00;;;;;;5031321;28;20422;-88
2023/10/01 06:15:11;;;;;;;18.40;6.63;;;11.10;1.00;;;;;;5012801;28;20411;-89
2023/10/01 06:17:58;;;;;;;9.00;5.60;;;8.70;1.00;;;;;;5012707;28;20802;-88
2023/10/01 06:20:29;;;;;;;9.90;5.73;;;8.80;1.00;;;;;;5005812;28;20993;-89
2023/10/01 06:29:51;;;;;;;6.77;3.90;;;9.00;1.00;;;;;;5013380;28;20427;-88
2023/10/01 06:32:43;;;;;;;8.67;5.20;;;9.10;1.00;;;;;;5012475;28;20432;-88
2023/10/01 06:35:14;;;;;;;9.33;5.30;;;9.10;1.00;;;;;;5012462;28;20409;-88
2023/10/01 06:38:30;;;;;;;8.70;5.30;;;9.10;1.00;;;;;;5012962;28;20430;-89
2023/10/01 06:40:56;;;;;;;9.70;4.90;;;9.10;1.00;;;;;;5019754;28;20435;-89
2023/10/01 06:43:32;;;;;;;11.20;4.90;;;9.20;1.00;;;;;;5015780;28;20430;-88
2023/10/01 06:46:32;;;;;;;14.27;4.23;;;9.30;1.00;;;;;;5015134;28;20208;-88
2023/10/01 06:48:58;;;;;;;9.70;5.23;;;9.30;1.00;;;;;;5015814;28;20565;-88
2023/10/01 06:51:55;;;;;;;9.20;4.50;;;9.40;1.00;;;;;;5014699;28;20518;-95
2023/10/01 07:01:47;;;;;;;10.33;5.70;;;9.60;1.00;;;;;;4997909;28;20385;-95
2023/10/01 07:07:40;;;;;;;6.20;4.30;;;9.90;1.00;;;;;;5017628;28;20940;-95
2023/10/01 07:13:32;;;;;;;15.50;6.47;;;10.10;1.00;;;;;;5036643;28;20394;-90
2023/10/01 07:19:21;;;;;;;11.10;5.97;;;10.40;1.00;;;;;;5016437;28;20432;-89
2023/10/01 07:21:58;;;;;;;8.83;5.20;;;10.60;1.00;;;;;;5015810;28;20393;-90
2023/10/01 07:24:30;;;;;;;9.50;5.40;;;10.80;1.00;;;;;;5014988;28;20435;-90
2023/10/01 07:27:06;;;;;;;15.73;6.77;;;10.90;1.00;;;;;;5021689;28;20457;-91
2023/10/01 07:29:56;;;;;;;15.20;7.43;;;11.10;1.00;;;;;;5014610;28;20430;-91
2023/10/01 07:32:25;;;;;;;17.00;7.37;;;11.20;1.00;;;;;;5029085;28;20468;-84
2023/10/01 07:34:59;;;;;;;14.50;7.30;;;11.40;1.00;;;;;;5025765;28;20430;-82
2023/10/01 07:37:29;;;;;;;22.67;9.30;;;11.50;1.00;;;;;;5027857;28;20501;-85
2023/10/01 07:40:08;;;;;;;24.73;9.13;;;11.70;1.00;;;;;;5035443;28;20383;-85
2023/10/01 07:42:46;;;;;;;15.70;8.60;;;11.80;1.00;;;;;;5016076;28;20435;-84
2023/10/01 07:48:38;;;;;;;19.93;8.97;;;12.10;1.00;;;;;;4995627;28;20440;-85
2023/10/01 07:51:44;;;;;;;18.67;9.40;;;12.30;1.00;;;;;;5014919;28;20406;-84
2023/10/01 07:54:10;;;;;;;17.53;8.87;;;12.50;1.00;;;;;;5013649;28;20522;-83
2023/10/01 07:57:08;;;;;;;16.80;8.70;;;12.60;1.00;;;;;;5013863;28;20436;-83
2023/10/01 08:00:25;;;;;;;18.83;9.03;;;12.80;1.00;;;;;;5032195;28;20689;-83
2023/10/01 08:03:28;;;;;;;23.97;8.53;;;13.00;1.00;;;;;;5029555;28;20405;-83
2023/10/01 08:05:38;;;;;;;25.50;10.20;;;13.10;1.00;;;;;;5029654;28;20795;-84
2023/10/01 08:08:10;;;;;;;19.00;9.57;;;13.40;1.00;;;;;;5020577;28;20419;-85
2023/10/01 08:10:37;;;;;;;20.20;9.37;;;13.50;1.00;;;;;;5013834;28;20495;-83
2023/10/01 08:13:25;;;;;;;20.20;9.90;;;13.50;1.00;;;;;;5011793;28;20838;-82
2023/10/01 08:15:57;;;;;;;23.17;9.33;;;13.70;1.00;;;;;;5024330;28;20438;-83
2023/10/01 08:22:13;;;;;;;15.20;8.77;;;14.00;1.00;;;;;;5015142;28;20435;-83
2023/10/01 08:25:08;;;;;;;22.40;9.43;;;14.10;1.00;;;;;;5014173;28;20489;-86
2023/10/01 08:27:34;;;;;;;22.40;9.83;;;14.20;1.00;;;;;;5008334;28;20436;-85
2023/10/01 08:30:18;;;;;;;21.73;9.03;;;14.40;1.00;;;;;;5032069;28;20367;-86
2023/10/01 08:33:34;;;;;;;19.93;9.60;;;14.50;1.00;;;;;;5032606;28;20929;-85
2023/10/01 08:36:43;;;;;;;17.27;9.27;;;14.50;1.00;;;;;;5010095;28;20384;-86
2023/10/01 08:39:20;;;;;;;18.80;8.70;;;14.60;1.00;;;;;;5035203;28;20431;-85
2023/10/01 08:42:34;;;;;;;19.13;9.47;;;14.70;1.00;;;;;;5001143;28;20427;-86
2023/10/01 08:45:06;;;;;;;23.00;8.60;;;14.80;1.00;;;;;;5010907;28;20513;-86
2023/10/01 08:50:56;;;;;;;13.17;7.57;;;14.90;1.00;;;;;;5013886;28;20416;-86
2023/10/01 08:53:45;;;;;;;19.27;9.33;;;15.10;1.00;;;;;;5029600;28;20420;-86
2023/10/01 08:56:34;;;;;;;19.83;8.70;;;15.20;1.00;;;;;;5025570;28;20433;-84
2023/10/01 08:59:23;;;;;;;19.83;8.73;;;15.30;1.00;;;;;;4993927;28;20451;-83
2023/10/01 09:02:18;;;;;;;18.70;8.67;;;15.50;1.00;;;;;;5001359;28;20447;-82
2023/10/01 09:08:55;;;;;;;20.10;8.33;;;15.70;1.00;;;;;;5017556;28;20409;-83
2023/10/01 09:11:47;;;;;;;17.63;7.53;;;15.90;1.00;;;;;;5014539;28;20769;-83
2023/10/01 09:14:35;;;;;;;22.67;7.57;;;16.00;1.00;;;;;;5014677;28;20408;-82
2023/10/01 09:17:25;;;;;;;15.73;7.70;;;16.10;1.00;;;;;;5004616;28;20919;-82
2023/10/01 09:23:57;;;;;;;17.40;7.53;;;16.30;1.00;;;;;;5016551;28;20877;-82
2023/10/01 09:26:55;;;;;;;18.70;8.10;;;16.60;1.00;;;;;;5004591;28;20449;-84
2023/10/01 09:30:35;;;;;;;14.83;7.70;;;16.60;1.00;;;;;;5011268;28;20403;-85
2023/10/01 09:32:57;;;;;;;13.30;6.87;;;16.60;1.00;;;;;;5003773;28;20489;-87
2023/10/01 09:35:41;;;;;;;17.50;8.30;;;16.90;1.00;;;;;;5007535;28;20432;-85
2023/10/01 09:38:28;;;;;;;15.73;7.77;;;17.00;1.00;;;;;;5009246;28;20816;-87
2023/10/01 09:41:19;;;;;;;15.30;7.27;;;17.20;1.00;;;;;;5000673;28;20416;-86
2023/10/01 09:44:03;;;;;;;16.93;8.20;;;17.30;1.00;;;;;;5003925;28;20397;-86
2023/10/01 09:46:49;;;;;;;14.73;7.70;;;17.40;1.00;;;;;;5026338;28;20466;-86
2023/10/01 09:49:30;;;;;;;17.80;6.63;;;17.50;1.00;;;;;;5012349;28;20402;-86
2023/10/01 09:52:03;;;;;;;13.30;7.10;;;17.70;1.00;;;;;;5012305;28;20484;-86
2023/10/01 09:57:55;;;;;;;18.30;7.13;;;17.80;1.00;;;;;;5019905;28;20474;-83
2023/10/01 10:01:01;;;;;;;16.60;8.03;;;18.00;1.00;;;;;;5012637;28;20438;-83
2023/10/01 10:03:44;;;;;;;17.57;7.00;;;18.10;1.00;;;;;;5013749;28;20964;-83
2023/10/01 10:06:24;;;;;;;19.30;7.30;;;18.20;1.00;;;;;;5016488;28;20481;-83
2023/10/01 10:09:26;;;;;;;14.60;6.60;;;18.30;1.00;;;;;;5024446;28;20389;-83
2023/10/01 10:11:52;;;;;;;14.77;7.17;;;18.40;1.00;;;;;;5012393;28;20519;-83
2023/10/01 10:14:29;;;;;;;13.60;6.40;;;18.50;1.00;;;;;;5034689;28;20390;-83
2023/10/01 10:17:18;;;;;;;13.03;6.87;;;18.70;1.00;;;;;;5025579;28;20429;-83
2023/10/01 10:20:24;;;;;;;15.47;6.40;;;18.70;1.00;;;;;;5011696;28;20420;-82
2023/10/01 10:23:31;;;;;;;12.80;6.57;;;18.90;1.00;;;;;;5017390;28;20424;-82
2023/10/01 10:26:25;;;;;;;13.53;6.87;;;18.90;1.00;;;;;;5018494;28;20525;-84
2023/10/01 10:29:13;;;;;;;14.63;6.73;;;19.00;1.00;;;;;;5011672;28;20442;-86
2023/10/01 10:31:44;;;;;;;13.03;5.90;;;19.00;1.00;;;;;;5015340;28;20498;-85
2023/10/01 10:34:22;;;;;;;16.13;7.13;;;19.20;1.00;;;;;;5025997;28;20410;-85
2023/10/01 10:36:53;;;;;;;23.87;6.80;;;19.30;1.00;;;;;;5013890;28;20477;-85
2023/10/01 10:39:50;;;;;;;10.50;5.33;;;19.40;1.00;;;;;;5035402;28;20401;-86
2023/10/01 10:42:28;;;;;;;13.77;6.20;;;19.60;1.00;;;;;;5016301;28;20426;-85
2023/10/01 10:45:49;;;;;;;13.70;5.73;;;19.60;1.00;;;;;;4996471;28;20928;-89
2023/10/01 10:48:59;;;;;;;14.67;5.53;;;19.70;1.00;;;;;;5023492;28;20453;-88
2023/10/01 10:51:58;;;;;;;12.23;6.40;;;19.80;1.00;;;;;;5006600;28;20444;-85
2023/10/01 10:54:45;;;;;;;12.70;6.17;;;19.90;1.00;;;;;;5020133;28;20421;-87
2023/10/01 10:57:25;;;;;;;15.00;5.87;;;20.10;1.00;;;;;;5029495;28;20426;-83
2023/10/01 10:59:52;;;;;;;12.17;5.90;;;20.20;1.00;;;;;;5017123;28;20427;-84
2023/10/01 11:02:20;;;;;;;17.23;6.40;;;20.40;1.00;;;;;;5031830;28;20452;-83
2023/10/01 11:04:56;;;;;;;13.20;5.83;;;20.40;1.00;;;;;;5016121;28;20924;-84
2023/10/01 11:10:55;;;;;;;15.23;6.60;;;20.60;1.00;;;;;;5025632;28;20401;-84
2023/10/01 11:13:38;;;;;;;15.17;6.37;;;20.60;1.00;;;;;;5032639;28;20417;-84
2023/10/01 11:16:14;;;;;;;13.70;6.00;;;20.70;1.00;;;;;;5017238;28;20432;-84
2023/10/01 11:19:14;;;;;;;12.23;5.23;;;21.00;1.00;;;;;;5008813;28;21043;-83
2023/10/01 11:21:59;;;;;;;15.13;6.30;;;21.00;1.00;;;;;;5020275;28;20529;-84
2023/10/01 11:24:56;;;;;;;24.77;5.03;;;21.00;1.00;;;;;;5021995;28;20920;-83
2023/10/01 11:27:25;;;;;;;11.73;5.10;;;21.20;1.00;;;;;;5016005;28;20447;-84
2023/10/01 11:34:04;;;;;;;14.80;5.00;;;21.30;1.00;;;;;;5023646;28;20493;-84
2023/10/01 11:36:44;;;;;;;12.93;5.37;;;21.30;1.00;;;;;;5015487;28;20402;-83
2023/10/01 11:39:49;;;;;;;13.37;4.63;;;21.40;1.00;;;;;;5025530;28;20412;-84
2023/10/01 11:42:38;;;;;;;10.33;5.47;;;21.40;1.00;;;;;;5005806;28;20410;-85
2023/10/01 11:45:31;;;;;;;11.30;5.23;;;21.50;1.00;;;;;;5019553;28;20446;-83
2023/10/01 11:48:32;;;;;;;13.73;5.80;;;21.50;1.00;;;;;;5019247;28;20440;-84
2023/10/01 11:54:22;;;;;;;11.90;5.00;;;21.60;1.00;;;;;;5022747;28;20797;-84
2023/10/01 11:57:05;;;;;;;10.90;5.20;;;21.70;1.00;;;;;;5033557;28;20413;-84
2023/10/01 11:59:36;;;;;;;9.43;4.30;;;21.80;1.00;;;;;;5016841;28;20404;-86
2023/10/01 12:02:58;;;;;;;18.27;5.60;;;21.90;1.00;;;;;;5013826;28;20916;-85
2023/10/01 12:05:41;;;;;;;14.23;6.00;;;22.00;1.00;;;;;;5035547;28;20428;-85
2023/10/01 12:08:14;;;;;;;11.17;5.30;;;22.10;1.00;;;;;;5019041;28;20423;-86
2023/10/01 12:10:51;;;;;;;12.30;5.10;;;22.10;1.00;;;;;;5019931;28;20446;-86
2023/10/01 12:13:21;;;;;;;11.20;5.20;;;22.20;1.00;;;;;;4994431;28;20815;-84
2023/10/01 12:15:57;;;;;;;15.17;5.17;;;22.20;1.00;;;;;;5015312;28;20432;-83
2023/10/01 12:18:36;;;;;;;14.07;5.77;;;22.30;1.00;;;;;;5010560;28;20471;-84
2023/10/01 12:21:24;;;;;;;14.30;6.20;;;22.30;1.00;;;;;;5015262;28;20443;-83
2023/10/01 12:23:56;;;;;;;14.23;6.00;;;22.20;1.00;;;;;;5008144;28;20517;-84
2023/10/01 12:31:36;;;;;;;16.37;6.47;;;22.70;1.00;;;;;;5023661;28;20444;-85
2023/10/01 12:34:37;;;;;;;19.17;5.77;;;22.60;1.00;;;;;;5023760;28;20426;-86
2023/10/01 12:37:35;;;;;;;15.90;6.07;;;22.90;1.00;;;;;;5028983;28;20856;-86
2023/10/01 12:40:17;;;;;;;16.70;7.00;;;23.10;1.00;;;;;;5012186;28;20437;-86
2023/10/01 12:42:50;;;;;;;13.73;5.93;;;23.20;1.00;;;;;;5010471;28;20510;-87
2023/10/01 12:45:27;;;;;;;12.80;5.67;;;23.30;1.00;;;;;;5010115;28;20420;-86
2023/10/01 12:48:20;;;;;;;14.10;5.83;;;23.20;1.00;;;;;;5023413;28;20468;-85
2023/10/01 12:51:03;;;;;;;16.20;6.40;;;23.10;1.00;;;;;;5023847;28;20442;-84
2023/10/01 12:53:50;;;;;;;15.40;5.60;;;23.20;1.00;;;;;;5012782;28;20478;-83
2023/10/01 12:56:44;;;;;;;13.30;5.40;;;23.30;1.00;;;;;;5013818;28;20390;-84
2023/10/01 12:59:18;;;;;;;13.60;5.87;;;23.20;1.00;;;;;;5008090;28;20430;-83
2023/10/01 13:01:53;;;;;;;18.50;6.80;;;23.40;1.00;;;;;;5019238;28;20958;-84
2023/10/01 13:04:25;;;;;;;16.23;6.10;;;23.30;1.00;;;;;;5024552;28;20435;-83
2023/10/01 13:07:03;;;;;;;20.30;6.60;;;23.40;1.00;;;;;;5016525;28;20455;-83
2023/10/01 13:12:53;;;;;;;15.30;5.73;;;23.50;1.00;;;;;;5022620;28;20455;-83
2023/10/01 13:15:29;;;;;;;16.23;5.70;;;23.60;1.00;;;;;;5023093;28;20447;-83
2023/10/01 13:18:11;;;;;;;15.23;5.77;;;23.70;1.00;;;;;;4993966;28;20803;-84
2023/10/01 13:20:58;;;;;;;16.97;6.20;;;23.80;1.00;;;;;;5021341;28;20406;-84
2023/10/01 13:23:55;;;;;;;10.63;5.27;;;23.80;1.00;;;;;;4992684;28;20461;-84
2023/10/01 13:26:44;;;;;;;20.20;6.93;;;23.90;1.00;;;;;;5004879;28;20462;-84
2023/10/01 13:29:30;;;;;;;19.17;6.03;;;24.00;1.00;;;;;;5011172;28;20430;-83
2023/10/01 13:32:02;;;;;;;13.40;5.87;;;23.90;1.00;;;;;;5031123;28;20482;-82
2023/10/01 13:34:54;;;;;;;17.30;5.43;;;24.00;1.00;;;;;;5032910;28;21020;-82
2023/10/01 13:38:15;;;;;;;18.67;5.97;;;24.00;1.00;;;;;;5026267;28;20434;-82
2023/10/01 14:09:54;;;;;;;18.27;6.80;;;24.40;1.00;;;;;;5013623;28;20514;-85
2023/10/01 14:16:11;;;;;;;17.63;6.17;;;24.30;1.00;;;;;;5012418;28;20927;-84
2023/10/01 14:18:55;;;;;;;16.30;6.40;;;24.30;1.00;;;;;;5015673;28;20423;-84
2023/10/01 14:21:27;;;;;;;11.30;5.27;;;24.40;1.00;;;;;;5015776;28;20497;-85
2023/10/01 14:24:21;;;;;;;12.87;5.60;;;24.40;1.00;;;;;;5022205;28;20424;-83
2023/10/01 14:26:56;;;;;;;16.93;6.50;;;24.50;1.00;;;;;;5011312;28;20479;-83
2023/10/01 14:30:02;;;;;;;15.53;6.40;;;24.50;1.00;;;;;;5016479;28;20497;-83
2023/10/01 14:32:34;;;;;;;12.73;5.23;;;24.50;1.00;;;;;;5014445;28;20433;-83
2023/10/01 14:35:20;;;;;;;20.10;6.20;;;24.40;1.00;;;;;;5035945;28;20409;-83
2023/10/01 14:37:55;;;;;;;11.13;6.00;;;24.50;1.00;;;;;;5022262;28;20508;-84
2023/10/01 14:40:27;;;;;;;17.73;6.73;;;24.50;1.00;;;;;;5011684;28;20427;-83
2023/10/01 14:43:08;;;;;;;16.63;6.13;;;24.50;1.00;;;;;;5030023;28;20417;-90
2023/10/01 14:46:01;;;;;;;14.50;6.07;;;24.40;1.00;;;;;;5023791;28;20445;-82
2023/10/01 14:48:38;;;;;;;14.40;6.63;;;24.30;1.00;;;;;;5011956;28;20531;-89
2023/10/01 14:51:04;;;;;;;12.03;5.87;;;24.30;1.00;;;;;;5008398;28;20497;-84
2023/10/01 14:53:36;;;;;;;19.03;7.20;;;24.30;1.00;;;;;;5015482;28;20429;-84
2023/10/01 14:56:20;;;;;;;19.43;7.07;;;24.30;1.00;;;;;;5015459;28;20792;-85
2023/10/01 14:58:46;;;;;;;16.13;6.70;;;;;;;;;;5014427;28;20442;-85
2023/10/01 15:01:14;;;;;;;16.60;5.83;;;24.30;1.00;;;;;;5025169;28;20453;-86
2023/10/01 15:03:57;;;;;;;14.23;6.93;;;24.40;1.00;;;;;;5033412;28;20431;-86
2023/10/01 15:06:27;;;;;;;15.00;5.87;;;24.40;1.00;;;;;;5016584;28;20491;-86
2023/10/01 15:08:58;;;;;;;11.57;5.90;;;24.30;1.00;;;;;;5017252;28;20425;-86
2023/10/01 15:11:26;;;;;;;18.77;5.90;;;24.20;1.00;;;;;;4997151;28;20438;-85
2023/10/01 15:13:57;;;;;;;14.87;6.47;;;24.30;1.00;;;;;;5007018;28;20920;-86
2023/10/01 15:16:28;;;;;;;25.13;6.77;;;24.50;1.00;;;;;;5035203;28;20414;-86
2023/10/01 15:19:01;;;;;;;12.70;5.77;;;24.90;1.00;;;;;;5035049;28;20411;-86
2023/10/01 15:22:03;;;;;;;10.37;5.80;;;25.40;1.00;;;;;;5020161;28;20487;-86
2023/10/01 15:24:35;;;;;;;12.73;5.80;;;26.30;1.00;;;;;;5013658;28;21134;-86
2023/10/01 15:27:25;;;;;;;14.07;6.30;;;27.20;1.00;;;;;;5014349;28;20455;-86
2023/10/01 15:29:52;;;;;;;14.37;6.67;;;27.90;1.00;;;;;;5031604;28;20430;-86
2023/10/01 15:32:21;;;;;;;13.70;6.17;;;28.60;1.00;;;;;;5033335;28;20535;-87
2023/10/01 15:34:59;;;;;;;19.00;6.77;;;29.00;1.00;;;;;;5019529;28;20604;-86
2023/10/01 15:37:29;;;;;;;13.50;6.17;;;29.40;1.00;;;;;;5026213;28;20459;-86
2023/10/01 15:40:00;;;;;;;14.17;6.23;;;29.40;1.00;;;;;;5014560;28;20420;-86
2023/10/01 15:42:53;;;;;;;12.60;6.00;;;29.00;1.00;;;;;;5022776;28;20424;-86
2023/10/01 15:45:20;;;;;;;14.60;6.30;;;28.60;1.00;;;;;;5015020;28;20432;-86
2023/10/01 15:47:58;;;;;;;11.73;5.83;;;28.10;1.00;;;;;;5025822;28;20864;-86
2023/10/01 15:50:37;;;;;;;19.53;6.03;;;27.80;1.00;;;;;;5019833;28;20443;-86
2023/10/01 15:53:27;;;;;;;16.93;6.80;;;27.70;1.00;;;;;;5015475;28;20497;-86
2023/10/01 15:56:30;;;;;;;15.63;7.03;;;27.40;1.00;;;;;;5014428;28;20418;-86
2023/10/01 15:59:10;;;;;;;16.23;6.57;;;27.30;1.00;;;;;;5012641;28;20426;-87
2023/10/01 16:01:48;;;;;;;15.53;6.13;;;27.30;1.00;;;;;;5034578;28;20441;-86
2023/10/01 16:04:14;;;;;;;14.67;6.37;;;27.10;1.00;;;;;;5034119;28;20417;-86
2023/10/01 16:07:17;;;;;;;13.23;6.60;;;26.80;1.00;;;;;;5016281;28;20453;-86
2023/10/01 16:09:56;;;;;;;15.13;6.27;;;26.30;1.00;;;;;;5022190;28;21041;-85
2023/10/01 16:12:26;;;;;;;16.37;6.30;;;25.90;1.00;;;;;;5018434;28;20927;-85
2023/10/01 16:15:15;;;;;;;17.00;5.57;;;25.50;1.00;;;;;;5024428;28;20471;-85
2023/10/01 16:17:44;;;;;;;13.27;6.60;;;25.20;1.00;;;;;;5038890;28;20413;-84
2023/10/01 16:20:18;;;;;;;17.80;6.63;;;24.80;1.00;;;;;;5025583;28;20952;-84
2023/10/01 16:22:44;;;;;;;14.27;6.57;;;24.50;1.00;;;;;;5019436;28;20425;-83
2023/10/01 16:25:10;;;;;;;12.97;6.20;;;24.20;1.00;;;;;;5025881;28;20428;-84
2023/10/01 16:27:40;;;;;;;17.10;6.20;;;23.90;1.00;;;;;;5017700;28;20287;-84
2023/10/01 16:30:19;;;;;;;14.27;6.40;;;23.60;1.00;;;;;;5030895;28;20434;-84
2023/10/01 16:32:53;;;;;;;18.20;6.90;;;23.30;1.00;;;;;;5020672;28;20435;-83
2023/10/01 16:35:29;;;;;;;17.47;6.60;;;23.00;1.00;;;;;;5008982;28;20476;-84
2023/10/01 16:37:57;;;;;;;19.20;7.27;;;22.60;1.00;;;;;;5008654;28;20438;-84
2023/10/01 16:43:54;;;;;;;24.57;6.90;;;22.30;1.00;;;;;;5016397;28;20424;-82
2023/10/01 16:46:41;;;;;;;14.47;5.87;;;21.90;1.00;;;;;;5014012;28;21013;-82
2023/10/01 16:49:15;;;;;;;15.27;6.33;;;21.70;1.00;;;;;;5014268;28;20439;-82
2023/10/01 16:52:02;;;;;;;18.10;6.70;;;21.50;1.00;;;;;;5012539;28;20435;-84
2023/10/01 16:54:38;;;;;;;17.70;6.40;;;21.20;1.00;;;;;;5024827;28;20408;-85